Time;durP1;ratioP1;P1;durP2;ratioP2;P2;SDS_P1;SDS_P2;PMS_P1;PMS_P2;Temp;Humidity;BMP_temperature;BMP_pressure;BME280_temperature;BME280_humidity;BME280_pressure;Samples;Min_cycle;Max_cycle;Signal;HPM_P1;HPM_P2
2021/04/26 00:01:01;;;;;;;16.03;3.33;;;9.40;99.90;;;;;;5088483;28;20160;-69
2021/04/26 00:03:27;;;;;;;9.40;3.43;;;9.40;99.90;;;;;;5088716;28;20218;-69
2021/04/26 00:05:53;;;;;;;10.17;3.07;;;9.40;99.90;;;;;;5085551;28;20168;-69
2021/04/26 00:08:18;;;;;;;12.10;3.17;;;9.20;99.90;;;;;;5088382;28;20310;-69
2021/04/26 00:10:44;;;;;;;11.73;3.40;;;9.20;99.90;;;;;;5088410;28;20219;-69
2021/04/26 00:13:10;;;;;;;9.20;2.90;;;9.20;99.90;;;;;;5087007;28;20188;-69
2021/04/26 00:15:35;;;;;;;10.07;2.70;;;9.20;99.90;;;;;;5085664;28;20152;-69
2021/04/26 00:18:01;;;;;;;8.10;2.50;;;9.10;99.90;;;;;;5088133;28;20199;-69
2021/04/26 00:20:30;;;;;;;7.13;2.73;;;9.10;99.90;;;;;;5088062;28;20249;-69
2021/04/26 00:22:57;;;;;;;8.80;3.27;;;9.10;99.90;;;;;;5088265;28;20172;-69
2021/04/26 00:25:22;;;;;;;11.03;2.73;;;9.10;99.90;;;;;;5085629;28;20370;-69
2021/04/26 00:27:48;;;;;;;11.53;3.10;;;9.10;99.90;;;;;;5088130;28;20248;-69
2021/04/26 00:30:17;;;;;;;8.60;3.07;;;9.00;99.90;;;;;;5086624;28;20168;-69
2021/04/26 00:32:43;;;;;;;13.90;2.70;;;8.90;99.90;;;;;;5086472;28;20222;-69
2021/04/26 00:35:09;;;;;;;22.50;3.90;;;8.90;99.90;;;;;;5086379;28;20164;-69
2021/04/26 00:37:35;;;;;;;13.37;3.40;;;8.90;99.90;;;;;;5068435;28;20179;-69
2021/04/26 00:40:01;;;;;;;7.80;3.10;;;8.90;99.90;;;;;;5087669;28;20215;-69
2021/04/26 00:42:27;;;;;;;10.67;3.30;;;8.90;99.90;;;;;;5086553;28;20218;-69
2021/04/26 00:44:52;;;;;;;6.37;2.57;;;8.90;99.90;;;;;;5087739;28;20164;-69
2021/04/26 00:47:19;;;;;;;13.73;3.40;;;8.80;99.90;;;;;;5084916;28;20172;-69
2021/04/26 00:49:44;;;;;;;9.50;3.13;;;8.70;99.90;;;;;;5086374;28;20156;-69
2021/04/26 00:52:10;;;;;;;15.37;3.03;;;8.70;99.90;;;;;;5086886;28;20226;-69
2021/04/26 00:54:36;;;;;;;12.23;3.23;;;8.60;99.90;;;;;;5087678;28;20163;-69
2021/04/26 00:57:02;;;;;;;9.87;3.10;;;8.50;99.90;;;;;;5084661;28;20218;-69
2021/04/26 00:59:28;;;;;;;11.53;3.30;;;8.50;99.90;;;;;;5087767;28;20160;-69
2021/04/26 01:01:54;;;;;;;14.03;3.50;;;8.50;99.90;;;;;;5087565;28;20164;-69
2021/04/26 01:04:20;;;;;;;9.93;2.93;;;8.50;99.90;;;;;;5086128;28;20160;-69
2021/04/26 01:06:46;;;;;;;14.40;3.43;;;8.50;99.90;;;;;;5084380;28;20172;-69
2021/04/26 01:09:11;;;;;;;7.67;3.17;;;8.30;99.90;;;;;;5087488;28;20190;-69
2021/04/26 01:12:02;;;;;;;10.07;2.80;;;8.40;99.90;;;;;;5087166;28;20168;-69
2021/04/26 01:14:49;;;;;;;10.87;3.30;;;8.30;99.90;;;;;;5087069;28;20164;-69
2021/04/26 01:17:22;;;;;;;12.27;3.27;;;8.20;99.90;;;;;;5084389;28;20228;-69
2021/04/26 01:20:19;;;;;;;7.60;3.13;;;8.20;99.90;;;;;;5087185;28;20248;-69
2021/04/26 01:23:03;;;;;;;11.40;3.40;;;8.20;99.90;;;;;;5086994;28;20168;-69
2021/04/26 01:25:31;;;;;;;9.53;3.70;;;8.10;99.90;;;;;;5084402;28;20546;-69
2021/04/26 01:28:12;;;;;;;6.63;3.10;;;8.10;99.90;;;;;;5086928;28;20159;-69
2021/04/26 01:30:56;;;;;;;11.53;3.37;;;8.20;99.90;;;;;;5087023;28;20167;-69
2021/04/26 01:33:26;;;;;;;9.90;3.50;;;8.10;99.90;;;;;;5086875;28;20208;-69
2021/04/26 01:35:54;;;;;;;8.27;3.50;;;8.00;99.90;;;;;;5083861;28;20184;-69
2021/04/26 01:38:25;;;;;;;16.23;3.67;;;8.10;99.90;;;;;;5086346;28;20184;-69
2021/04/26 01:40:53;;;;;;;10.67;3.70;;;8.10;99.90;;;;;;5086617;28;20411;-68
2021/04/26 01:43:22;;;;;;;15.27;3.53;;;8.00;99.90;;;;;;5086658;28;20221;-69
2021/04/26 01:45:51;;;;;;;13.57;3.67;;;8.10;99.90;;;;;;5084020;28;20271;-69
2021/04/26 01:48:17;;;;;;;11.47;3.47;;;7.90;99.90;;;;;;5084981;28;20168;-69
2021/04/26 01:50:43;;;;;;;7.97;3.40;;;7.90;99.90;;;;;;5086238;28;20233;-69
2021/04/26 01:53:10;;;;;;;11.87;3.53;;;7.80;99.90;;;;;;5086294;28;20225;-69
2021/04/26 01:55:36;;;;;;;10.00;3.60;;;7.70;99.90;;;;;;5083749;28;20246;-69
2021/04/26 01:58:03;;;;;;;11.03;3.40;;;7.90;99.90;;;;;;5086204;28;20182;-69
2021/04/26 02:00:31;;;;;;;13.00;3.60;;;7.70;99.90;;;;;;5085044;28;20637;-69
2021/04/26 02:02:58;;;;;;;11.60;3.50;;;7.80;99.90;;;;;;5086150;28;20167;-69
2021/04/26 02:05:26;;;;;;;13.37;3.57;;;7.80;99.90;;;;;;5083336;28;20348;-69
2021/04/26 02:07:52;;;;;;;11.87;3.70;;;7.70;99.90;;;;;;5086185;28;20178;-69
2021/04/26 02:10:22;;;;;;;7.97;3.30;;;7.50;99.90;;;;;;5086027;28;20164;-69
2021/04/26 02:12:48;;;;;;;11.23;3.67;;;7.40;99.90;;;;;;5086156;28;20199;-69
2021/04/26 02:15:17;;;;;;;17.57;3.90;;;7.40;99.90;;;;;;5084087;28;20153;-69
2021/04/26 02:17:43;;;;;;;11.17;3.63;;;7.40;99.90;;;;;;5085635;28;20224;-69
2021/04/26 02:20:11;;;;;;;8.80;3.40;;;7.40;99.90;;;;;;5085768;28;20160;-69
2021/04/26 02:22:37;;;;;;;13.10;3.10;;;7.40;99.90;;;;;;5084585;28;20183;-69
2021/04/26 02:25:05;;;;;;;10.93;3.67;;;7.50;99.90;;;;;;5083893;28;20167;-68
2021/04/26 02:27:31;;;;;;;6.70;3.13;;;7.50;99.90;;;;;;5084333;28;20183;-69
2021/04/26 02:29:57;;;;;;;8.03;3.43;;;7.40;99.90;;;;;;5085861;28;20210;-69
2021/04/26 02:32:35;;;;;;;6.83;3.63;;;7.30;99.90;;;;;;5072528;28;20204;-69
2021/04/26 02:35:05;;;;;;;9.67;3.13;;;7.30;99.90;;;;;;5064600;28;20255;-70
2021/04/26 02:38:04;;;;;;;7.97;3.20;;;7.30;99.90;;;;;;5063742;28;20165;-69
2021/04/26 02:40:50;;;;;;;12.37;3.40;;;7.20;99.90;;;;;;5047074;28;20240;-69
2021/04/26 02:43:16;;;;;;;4.53;2.90;;;7.10;99.90;;;;;;5047680;28;20263;-69
2021/04/26 02:45:50;;;;;;;8.33;3.60;;;7.10;99.90;;;;;;5062973;28;20168;-69
2021/04/26 02:48:18;;;;;;;12.63;3.40;;;7.10;99.90;;;;;;5065589;28;20156;-69
2021/04/26 02:50:45;;;;;;;10.57;3.87;;;7.10;99.90;;;;;;5065364;28;20240;-69
2021/04/26 02:53:12;;;;;;;6.17;2.93;;;7.00;99.90;;;;;;5065434;28;20670;-69
2021/04/26 02:55:39;;;;;;;9.63;3.60;;;7.10;99.90;;;;;;5062793;28;20394;-69
2021/04/26 02:58:06;;;;;;;10.30;3.47;;;7.10;99.90;;;;;;5065267;28;20160;-69
2021/04/26 03:00:32;;;;;;;6.43;4.00;;;7.10;99.90;;;;;;5065550;28;20203;-69
2021/04/26 03:02:58;;;;;;;12.93;4.00;;;7.00;99.90;;;;;;5065337;28;20230;-69
2021/04/26 03:05:25;;;;;;;10.27;3.77;;;6.90;99.90;;;;;;5062632;28;20165;-69
2021/04/26 03:07:51;;;;;;;8.40;3.60;;;6.90;99.90;;;;;;5065399;28;20176;-69
2021/04/26 03:10:18;;;;;;;5.57;3.73;;;6.90;99.90;;;;;;5065582;28;20188;-69
2021/04/26 03:12:48;;;;;;;12.37;4.13;;;6.70;99.90;;;;;;5065369;28;20657;-69
2021/04/26 03:15:20;;;;;;;9.77;3.53;;;6.70;99.90;;;;;;5045435;28;20164;-69
2021/04/26 03:17:47;;;;;;;13.23;4.33;;;7.10;99.90;;;;;;5065189;28;20160;-69
2021/04/26 03:20:15;;;;;;;10.80;4.33;;;6.90;99.90;;;;;;5064834;28;20222;-69
2021/04/26 03:22:44;;;;;;;6.90;4.03;;;6.80;99.90;;;;;;5065208;28;20184;-69
2021/04/26 03:25:11;;;;;;;10.70;4.17;;;6.80;99.90;;;;;;5063739;28;20169;-69
2021/04/26 03:27:40;;;;;;;12.03;3.83;;;6.80;99.90;;;;;;5064132;28;20183;-69
2021/04/26 03:30:07;;;;;;;7.80;3.47;;;6.80;99.90;;;;;;5065322;28;20217;-69
2021/04/26 03:32:33;;;;;;;9.80;3.80;;;6.90;99.90;;;;;;5064907;28;20666;-69
2021/04/26 03:34:59;;;;;;;10.70;3.80;;;6.90;99.90;;;;;;5065204;28;20534;-69
2021/04/26 03:37:25;;;;;;;12.57;3.83;;;6.90;99.90;;;;;;5062424;28;20642;-69
2021/04/26 03:39:51;;;;;;;14.43;3.53;;;6.80;99.90;;;;;;5065164;28;20224;-69
2021/04/26 03:42:18;;;;;;;12.50;3.53;;;6.70;99.90;;;;;;5064961;28;20161;-69
2021/04/26 03:44:45;;;;;;;8.70;3.73;;;6.60;99.90;;;;;;5065265;28;20201;-69
2021/04/26 03:47:11;;;;;;;5.83;3.20;;;6.50;99.90;;;;;;5064554;28;20173;-69
2021/04/26 03:49:37;;;;;;;8.83;3.40;;;6.40;99.90;;;;;;5068794;28;20161;-69
2021/04/26 03:52:03;;;;;;;11.93;3.90;;;6.30;99.90;;;;;;5067391;28;20432;-69
2021/04/26 03:54:29;;;;;;;9.37;4.17;;;6.50;99.90;;;;;;5068628;28;20157;-69
2021/04/26 03:56:55;;;;;;;10.13;3.70;;;6.50;99.90;;;;;;5047985;28;20180;-69
2021/04/26 03:59:21;;;;;;;6.53;3.67;;;6.40;99.90;;;;;;5068485;28;20389;-69
2021/04/26 04:01:46;;;;;;;12.60;3.87;;;6.40;99.90;;;;;;5068618;28;20157;-69
2021/04/26 04:04:12;;;;;;;10.23;3.43;;;6.40;99.90;;;;;;5050552;28;20623;-69
2021/04/26 04:06:38;;;;;;;8.00;4.13;;;6.40;99.90;;;;;;5065422;28;20164;-69
2021/04/26 04:09:05;;;;;;;10.05;4.28;;;6.40;99.90;;;;;;5068015;28;20404;-69
2021/04/26 04:11:32;;;;;;;11.87;3.90;;;6.30;99.90;;;;;;5068357;28;20203;-69
2021/04/26 04:13:58;;;;;;;8.93;4.40;;;6.30;99.90;;;;;;5068056;28;20204;-69
2021/04/26 04:16:26;;;;;;;14.23;4.60;;;6.20;99.90;;;;;;5065520;28;20256;-69
2021/04/26 04:18:51;;;;;;;10.90;4.03;;;6.20;99.90;;;;;;5068363;28;20196;-69
2021/04/26 04:21:17;;;;;;;11.60;4.63;;;6.20;99.90;;;;;;5067661;28;20694;-69
2021/04/26 04:23:43;;;;;;;10.27;3.93;;;6.30;99.90;;;;;;5068170;28;20164;-69
2021/04/26 04:26:09;;;;;;;10.67;3.67;;;6.20;99.90;;;;;;5065372;28;20176;-69
2021/04/26 04:28:36;;;;;;;15.57;4.23;;;6.20;99.90;;;;;;5068150;28;20673;-69
2021/04/26 04:31:02;;;;;;;10.00;4.33;;;6.10;99.90;;;;;;5067689;28;20211;-69
2021/04/26 04:33:28;;;;;;;8.70;4.17;;;6.20;99.90;;;;;;5067909;28;20188;-69
2021/04/26 04:35:54;;;;;;;10.30;4.13;;;6.10;99.90;;;;;;5047083;28;20172;-68
2021/04/26 04:38:20;;;;;;;7.47;3.90;;;6.20;99.90;;;;;;5049706;28;20168;-69
2021/04/26 04:40:46;;;;;;;11.17;3.93;;;6.10;99.90;;;;;;5067631;28;20204;-69
2021/04/26 04:43:11;;;;;;;10.07;4.03;;;6.00;99.90;;;;;;5067666;28;20174;-69
2021/04/26 04:45:37;;;;;;;6.30;4.30;;;6.00;99.90;;;;;;5065181;28;20197;-69
2021/04/26 04:48:05;;;;;;;13.57;4.03;;;6.00;99.90;;;;;;5067331;28;20546;-69
2021/04/26 04:50:30;;;;;;;10.53;4.50;;;5.90;99.90;;;;;;5067208;28;20172;-68
2021/04/26 04:52:56;;;;;;;7.90;4.60;;;5.90;99.90;;;;;;5049139;28;20233;-69
2021/04/26 04:55:22;;;;;;;9.90;5.10;;;6.00;99.90;;;;;;5063809;28;20291;-69
2021/04/26 04:57:48;;;;;;;9.67;4.17;;;6.00;99.90;;;;;;5066366;28;20165;-69
2021/04/26 05:00:14;;;;;;;11.30;4.40;;;6.00;99.90;;;;;;5066890;28;20161;-68
2021/04/26 05:02:40;;;;;;;12.27;5.10;;;6.00;99.90;;;;;;5067332;28;20167;-69
2021/04/26 05:05:06;;;;;;;15.30;5.13;;;6.10;99.90;;;;;;5066266;28;20247;-69
2021/04/26 05:07:32;;;;;;;15.17;4.70;;;6.10;99.90;;;;;;5065289;28;20169;-69
2021/04/26 05:09:58;;;;;;;13.60;4.97;;;6.10;99.90;;;;;;5067080;28;20165;-69
2021/04/26 05:12:24;;;;;;;12.87;4.90;;;6.10;99.90;;;;;;5067374;28;20252;-69
2021/04/26 05:14:49;;;;;;;16.40;4.73;;;6.20;99.90;;;;;;5067168;28;20157;-69
2021/04/26 05:17:16;;;;;;;8.63;4.40;;;6.30;99.90;;;;;;5064220;28;20230;-69
2021/04/26 05:19:43;;;;;;;6.23;4.50;;;6.30;99.90;;;;;;5067051;28;20214;-69
2021/04/26 05:22:08;;;;;;;8.70;4.60;;;6.30;99.90;;;;;;5066699;28;20177;-69
2021/04/26 05:24:36;;;;;;;12.87;4.80;;;6.40;99.90;;;;;;5067063;28;20172;-69
2021/04/26 05:27:02;;;;;;;10.57;4.60;;;6.40;99.90;;;;;;5063850;28;20172;-69
2021/04/26 05:29:28;;;;;;;11.83;4.40;;;6.50;99.90;;;;;;5048965;28;20167;-69
2021/04/26 05:31:54;;;;;;;6.80;4.70;;;6.50;99.90;;;;;;5066590;28;20216;-69
2021/04/26 05:34:19;;;;;;;16.63;5.10;;;6.50;99.90;;;;;;5066621;28;20168;-69
2021/04/26 05:36:45;;;;;;;10.90;5.30;;;6.70;99.90;;;;;;5064094;28;20674;-69
2021/04/26 05:39:10;;;;;;;16.87;5.20;;;6.70;99.90;;;;;;5066682;28;20499;-69
2021/04/26 05:41:36;;;;;;;9.30;4.90;;;6.60;99.90;;;;;;5066543;28;20224;-69
2021/04/26 05:44:02;;;;;;;10.70;4.43;;;6.70;99.90;;;;;;5066458;28;20216;-69
2021/04/26 05:46:28;;;;;;;9.77;4.43;;;6.80;99.90;;;;;;5063734;28;20172;-69
2021/04/26 05:48:54;;;;;;;15.00;5.50;;;6.90;99.90;;;;;;5066434;28;20172;-69
2021/04/26 05:51:20;;;;;;;10.60;4.70;;;7.00;99.90;;;;;;5048310;28;20176;-70
2021/04/26 05:53:45;;;;;;;10.13;4.50;;;7.00;99.90;;;;;;5048528;28;20673;-69
2021/04/26 05:56:11;;;;;;;11.23;4.70;;;7.10;99.90;;;;;;5063340;28;20192;-69
2021/04/26 05:58:37;;;;;;;9.83;5.40;;;7.10;99.90;;;;;;5066331;28;20180;-70
2021/04/26 06:01:03;;;;;;;12.43;4.63;;;7.20;99.90;;;;;;5048011;28;20360;-69
2021/04/26 06:03:29;;;;;;;14.63;4.70;;;7.30;99.90;;;;;;5066063;28;20165;-69
2021/04/26 06:05:56;;;;;;;14.20;5.40;;;7.30;99.90;;;;;;5045163;28;20184;-69
2021/04/26 06:08:22;;;;;;;9.37;4.17;;;7.30;99.90;;;;;;5048359;28;20164;-69
2021/04/26 06:10:47;;;;;;;11.83;4.10;;;7.30;99.90;;;;;;5065288;28;20165;-69
2021/04/26 06:13:13;;;;;;;9.30;3.90;;;7.30;99.90;;;;;;5065727;28;20235;-69
2021/04/26 06:15:39;;;;;;;6.63;4.10;;;7.40;99.90;;;;;;5063344;28;20473;-69
2021/04/26 06:18:16;;;;;;;10.33;4.50;;;7.60;99.90;;;;;;5065656;28;20183;-69
2021/04/26 06:20:44;;;;;;;8.43;4.00;;;7.70;99.90;;;;;;5065436;28;20259;-69
2021/04/26 06:23:10;;;;;;;11.43;4.60;;;7.70;99.90;;;;;;5065662;28;20183;-69
2021/04/26 06:25:37;;;;;;;14.13;4.20;;;7.90;99.90;;;;;;5062425;28;20785;-69
2021/04/26 06:28:07;;;;;;;10.87;4.50;;;8.00;99.90;;;;;;5065210;28;20654;-69
2021/04/26 06:30:33;;;;;;;14.10;4.20;;;8.00;99.90;;;;;;5065842;28;20173;-69
2021/04/26 06:32:59;;;;;;;9.33;4.33;;;8.20;99.90;;;;;;5065321;28;20693;-69
2021/04/26 06:35:25;;;;;;;11.15;5.03;;;8.20;99.90;;;;;;5062350;28;20434;-68
2021/04/26 06:37:51;;;;;;;11.83;4.43;;;8.40;99.90;;;;;;5065690;28;20161;-69
2021/04/26 06:40:17;;;;;;;11.03;5.03;;;8.50;99.90;;;;;;5065779;28;20157;-69
2021/04/26 06:42:43;;;;;;;14.30;4.57;;;8.50;99.90;;;;;;5065090;28;20160;-69
2021/04/26 06:45:10;;;;;;;11.37;4.83;;;8.50;99.90;;;;;;5064250;28;20161;-69
2021/04/26 06:47:36;;;;;;;13.40;4.40;;;8.50;99.90;;;;;;5046232;28;20182;-69
2021/04/26 06:50:02;;;;;;;10.07;4.97;;;8.50;99.90;;;;;;5065508;28;20168;-69
2021/04/26 06:52:28;;;;;;;17.47;4.67;;;8.60;99.90;;;;;;5065031;28;20192;-69
2021/04/26 06:54:53;;;;;;;12.20;4.20;;;8.70;99.90;;;;;;5065608;28;20169;-69
2021/04/26 06:57:19;;;;;;;9.97;4.93;;;8.80;99.90;;;;;;5062465;28;20172;-69
2021/04/26 06:59:45;;;;;;;8.20;4.37;;;8.90;99.90;;;;;;5065529;28;20768;-69
2021/04/26 07:02:11;;;;;;;6.70;4.53;;;9.00;99.90;;;;;;5065115;28;20195;-69
2021/04/26 07:04:37;;;;;;;10.70;4.37;;;9.10;99.90;;;;;;5065464;28;20165;-69
2021/04/26 07:07:03;;;;;;;13.53;4.70;;;9.10;99.90;;;;;;5062317;28;20211;-69
2021/04/26 07:09:29;;;;;;;11.90;4.53;;;9.10;99.90;;;;;;5065463;28;20168;-69
2021/04/26 07:11:54;;;;;;;12.20;4.10;;;9.10;99.90;;;;;;5065402;28;20169;-69
2021/04/26 07:14:20;;;;;;;9.30;4.97;;;9.10;99.90;;;;;;5065301;28;20153;-69
2021/04/26 07:16:47;;;;;;;7.60;4.30;;;9.40;99.90;;;;;;5062164;28;20180;-68
2021/04/26 07:19:13;;;;;;;11.47;4.63;;;9.50;99.90;;;;;;5065281;28;20165;-69
2021/04/26 07:21:38;;;;;;;12.93;6.13;;;9.50;99.90;;;;;;5066318;28;20176;-69
2021/04/26 07:24:04;;;;;;;8.17;4.97;;;9.60;99.90;;;;;;5069216;28;20194;-69
2021/04/26 07:26:30;;;;;;;9.83;4.60;;;9.70;99.90;;;;;;5066416;28;20181;-69
2021/04/26 07:28:56;;;;;;;10.33;5.03;;;9.80;99.90;;;;;;5069396;28;20172;-69
2021/04/26 07:31:21;;;;;;;8.77;4.77;;;9.90;99.90;;;;;;5069189;28;20216;-68
2021/04/26 07:33:48;;;;;;;12.70;4.90;;;9.90;99.90;;;;;;5069053;28;20821;-69
2021/04/26 07:36:14;;;;;;;8.53;5.00;;;9.90;99.90;;;;;;5065577;28;20173;-69
2021/04/26 07:38:40;;;;;;;12.70;5.43;;;10.00;99.90;;;;;;5069101;28;20149;-68
2021/04/26 07:41:06;;;;;;;11.50;4.63;;;10.10;99.90;;;;;;5050319;28;20187;-69
2021/04/26 07:43:31;;;;;;;10.00;5.13;;;10.10;99.90;;;;;;5068882;28;20657;-68
2021/04/26 07:45:57;;;;;;;14.90;5.37;;;10.20;99.90;;;;;;5066149;28;20169;-68
2021/04/26 07:48:23;;;;;;;12.07;4.80;;;10.10;99.90;;;;;;5069108;28;20223;-69
2021/04/26 07:50:49;;;;;;;9.20;4.90;;;10.20;99.90;;;;;;5068621;28;20204;-69
2021/04/26 07:53:16;;;;;;;13.00;5.00;;;10.20;99.90;;;;;;5068623;28;20210;-69
2021/04/26 07:55:41;;;;;;;8.83;4.87;;;10.30;99.90;;;;;;5066164;28;20199;-69
2021/04/26 07:58:07;;;;;;;12.63;5.10;;;10.40;99.90;;;;;;5068334;28;20172;-69
2021/04/26 08:00:33;;;;;;;15.70;4.93;;;10.40;99.90;;;;;;5068582;28;20626;-70
2021/04/26 08:02:59;;;;;;;8.77;5.53;;;10.60;99.90;;;;;;5067816;28;20165;-68
2021/04/26 08:05:24;;;;;;;19.00;5.40;;;10.70;99.90;;;;;;5065806;28;20753;-69
2021/04/26 08:07:50;;;;;;;9.10;5.10;;;10.80;99.90;;;;;;5049990;28;20275;-68
2021/04/26 08:10:16;;;;;;;17.67;5.00;;;10.90;99.90;;;;;;5068243;28;20180;-69
2021/04/26 08:12:42;;;;;;;11.20;5.40;;;10.90;99.90;;;;;;5068358;28;20201;-69
2021/04/26 08:15:10;;;;;;;14.83;5.50;;;10.90;99.90;;;;;;5067116;28;20161;-69
2021/04/26 08:17:36;;;;;;;14.03;5.27;;;11.10;99.90;;;;;;5066638;28;20643;-69
2021/04/26 08:20:03;;;;;;;14.87;4.93;;;11.30;99.90;;;;;;5068047;28;20168;-69
2021/04/26 08:22:28;;;;;;;7.70;4.67;;;11.40;99.90;;;;;;5067909;28;20177;-68
2021/04/26 08:24:54;;;;;;;6.83;4.67;;;11.50;99.90;;;;;;5068159;28;20225;-69
2021/04/26 08:27:20;;;;;;;13.77;5.10;;;11.70;99.90;;;;;;5065235;28;20259;-69
2021/04/26 08:29:46;;;;;;;12.67;5.70;;;11.90;99.90;;;;;;5068134;28;20192;-69
2021/04/26 08:32:12;;;;;;;12.27;5.50;;;12.00;99.90;;;;;;5068996;28;20223;-69
2021/04/26 08:34:37;;;;;;;13.30;5.13;;;12.10;99.90;;;;;;5087377;28;20160;-69
2021/04/26 08:37:03;;;;;;;12.27;5.13;;;12.20;99.90;;;;;;5084538;28;20229;-68
2021/04/26 08:39:29;;;;;;;9.67;5.00;;;12.20;99.90;;;;;;5086708;28;20168;-69
2021/04/26 08:41:54;;;;;;;8.63;4.83;;;12.30;99.90;;;;;;5087734;28;20160;-69
2021/04/26 08:44:20;;;;;;;12.00;5.10;;;12.50;99.90;;;;;;5087557;28;20168;-68
2021/04/26 08:46:46;;;;;;;11.97;5.07;;;12.40;99.90;;;;;;5083591;28;20183;-68
2021/04/26 08:49:16;;;;;;;10.40;4.63;;;12.50;99.90;;;;;;5086402;28;20164;-69
2021/04/26 08:51:43;;;;;;;7.30;4.90;;;12.60;99.90;;;;;;5085172;28;20175;-68
2021/04/26 08:54:11;;;;;;;10.03;5.23;;;12.80;99.90;;;;;;5087350;28;20251;-68
2021/04/26 08:56:37;;;;;;;9.00;5.33;;;12.70;99.90;;;;;;5084913;28;20255;-69
2021/04/26 08:59:04;;;;;;;9.17;4.57;;;12.70;99.90;;;;;;5087407;28;20633;-69
2021/04/26 09:01:29;;;;;;;11.13;4.97;;;12.70;99.90;;;;;;5087523;28;20171;-69
2021/04/26 09:04:07;;;;;;;10.00;5.10;;;12.80;99.90;;;;;;5086899;28;20167;-68
2021/04/26 09:06:51;;;;;;;8.57;4.68;;;12.90;99.90;;;;;;5084223;28;20201;-69
2021/04/26 09:09:45;;;;;;;9.23;5.13;;;13.00;99.90;;;;;;5087240;28;20160;-69
2021/04/26 09:12:21;;;;;;;13.32;5.25;;;13.10;99.90;;;;;;5087068;28;20238;-69
2021/04/26 09:14:49;;;;;;;13.45;4.72;;;13.30;99.90;;;;;;5087377;28;20164;-68
2021/04/26 09:17:34;;;;;;;12.40;4.65;;;13.40;99.90;;;;;;5084379;28;20231;-68
2021/04/26 09:20:01;;;;;;;8.02;4.65;;;13.30;99.90;;;;;;5087063;28;20189;-69
2021/04/26 09:22:48;;;;;;;6.75;4.88;;;13.40;99.90;;;;;;5086820;28;20168;-68
2021/04/26 09:25:25;;;;;;;16.40;4.82;;;13.50;99.90;;;;;;5085134;28;20168;-69
2021/04/26 09:27:58;;;;;;;9.20;4.55;;;13.60;99.90;;;;;;5086652;28;20175;-69
2021/04/26 09:30:46;;;;;;;9.02;3.90;;;13.80;99.90;;;;;;5086470;28;20241;-69
2021/04/26 09:33:40;;;;;;;9.20;3.38;;;13.90;99.90;;;;;;5065831;28;20220;-69
2021/04/26 09:36:30;;;;;;;10.75;3.92;;;14.00;99.90;;;;;;5063957;28;20168;-69
2021/04/26 09:38:56;;;;;;;12.43;4.05;;;14.10;99.90;;;;;;5066727;28;20164;-68
2021/04/26 09:41:30;;;;;;;9.25;3.90;;;13.90;99.90;;;;;;5066841;28;20156;-68
2021/04/26 09:44:02;;;;;;;9.38;4.53;;;14.00;99.90;;;;;;5066606;28;20172;-69
2021/04/26 09:46:46;;;;;;;9.32;4.20;;;14.00;99.90;;;;;;5063945;28;20173;-68
2021/04/26 09:49:15;;;;;;;6.70;3.67;;;14.10;99.90;;;;;;5066427;28;20164;-68
2021/04/26 09:51:50;;;;;;;5.93;3.33;;;14.10;99.90;;;;;;5066250;28;20202;-68
2021/04/26 09:54:16;;;;;;;6.25;3.55;;;14.20;99.90;;;;;;5066427;28;20236;-68
2021/04/26 09:56:46;;;;;;;9.63;3.72;;;14.40;99.90;;;;;;5063781;28;20736;-68
2021/04/26 09:59:14;;;;;;;10.35;4.00;;;14.50;99.90;;;;;;5066136;28;20228;-68
2021/04/26 10:01:41;;;;;;;7.95;4.03;;;14.60;99.90;;;;;;5066443;28;20224;-69
2021/04/26 10:04:10;;;;;;;5.13;3.40;;;14.80;99.90;;;;;;5066264;28;20614;-69
2021/04/26 10:06:37;;;;;;;6.28;3.97;;;14.90;99.90;;;;;;5063487;28;20172;-69
2021/04/26 10:09:06;;;;;;;8.30;3.72;;;14.90;99.90;;;;;;5048063;28;20169;-68
2021/04/26 10:11:33;;;;;;;5.65;3.53;;;15.10;99.90;;;;;;5066045;28;20653;-69
2021/04/26 10:14:11;;;;;;;5.25;3.80;;;15.20;99.90;;;;;;5065707;28;20246;-69
2021/04/26 10:17:03;;;;;;;6.68;3.92;;;15.20;99.90;;;;;;5063466;28;20191;-69
2021/04/26 10:19:34;;;;;;;8.32;4.10;;;15.30;99.90;;;;;;5066164;28;20186;-69
2021/04/26 10:22:01;;;;;;;8.13;3.95;;;15.20;99.90;;;;;;5064921;28;20176;-69
2021/04/26 10:24:29;;;;;;;8.32;4.28;;;15.40;99.90;;;;;;5065466;28;20161;-69
2021/04/26 10:27:01;;;;;;;9.35;4.15;;;15.50;99.90;;;;;;5063128;28;20175;-69
2021/04/26 10:29:30;;;;;;;5.13;4.15;;;15.70;99.90;;;;;;5065910;28;20163;-69
2021/04/26 10:31:59;;;;;;;8.15;4.38;;;15.70;99.90;;;;;;5065431;28;20235;-69
2021/04/26 10:34:57;;;;;;;8.60;4.18;;;15.60;99.90;;;;;;5065890;28;20161;-69
2021/04/26 10:37:25;;;;;;;5.40;4.35;;;15.80;99.90;;;;;;5044814;28;20169;-69
2021/04/26 10:40:00;;;;;;;8.15;4.07;;;15.80;99.90;;;;;;5065823;28;20163;-70
2021/04/26 10:42:33;;;;;;;10.40;4.10;;;16.00;99.90;;;;;;5047545;28;20170;-69
2021/04/26 10:45:00;;;;;;;6.57;3.67;;;16.20;99.90;;;;;;5065363;28;20207;-70
2021/04/26 10:47:30;;;;;;;5.63;4.18;;;16.30;99.90;;;;;;5063215;28;20165;-69
2021/04/26 10:50:02;;;;;;;6.15;3.50;;;16.50;99.90;;;;;;5065659;28;20168;-70
2021/04/26 10:52:28;;;;;;;8.38;4.13;;;16.70;99.90;;;;;;5046900;28;20211;-70
2021/04/26 10:54:58;;;;;;;8.27;4.70;;;16.80;99.90;;;;;;5065655;28;20184;-69
2021/04/26 10:57:34;;;;;;;9.60;4.25;;;16.50;99.90;;;;;;5062133;28;20160;-69
2021/04/26 11:00:30;;;;;;;9.32;4.47;;;16.40;99.90;;;;;;5065449;28;20655;-69
2021/04/26 11:02:57;;;;;;;9.00;3.90;;;16.40;99.90;;;;;;5065493;28;20177;-69
2021/04/26 11:05:28;;;;;;;6.03;3.55;;;16.70;99.90;;;;;;5063023;28;20161;-69
2021/04/26 11:07:59;;;;;;;6.45;3.65;;;16.90;99.90;;;;;;5065224;28;20173;-69
2021/04/26 11:10:37;;;;;;;5.18;3.50;;;17.10;99.90;;;;;;5065646;28;20161;-69
2021/04/26 11:13:29;;;;;;;7.63;3.50;;;17.40;99.90;;;;;;5065174;28;20749;-69
2021/04/26 11:16:12;;;;;;;8.52;4.15;;;17.40;99.90;;;;;;5016346;28;20213;-69
2021/04/26 11:18:57;;;;;;;6.18;3.53;;;17.50;99.90;;;;;;5065172;28;20174;-69
2021/04/26 11:21:47;;;;;;;6.65;3.75;;;17.80;99.90;;;;;;5064873;28;20172;-69
2021/04/26 11:24:36;;;;;;;10.68;4.20;;;17.20;99.90;;;;;;5065235;28;20165;-69
2021/04/26 11:27:07;;;;;;;9.35;3.63;;;17.00;99.90;;;;;;5062370;28;20199;-69
2021/04/26 11:29:34;;;;;;;5.93;4.13;;;17.00;99.90;;;;;;5065357;28;20210;-69
2021/04/26 11:32:05;;;;;;;5.40;3.50;;;16.80;99.90;;;;;;5064705;28;20283;-69
2021/04/26 11:34:53;;;;;;;10.82;4.30;;;16.10;99.90;;;;;;5065197;28;20165;-69
2021/04/26 11:37:19;;;;;;;7.40;4.30;;;16.50;99.90;;;;;;5044146;28;20176;-69
2021/04/26 11:39:46;;;;;;;9.00;3.88;;;16.90;99.90;;;;;;5065115;28;20168;-69
2021/04/26 11:42:32;;;;;;;6.65;4.32;;;17.30;99.90;;;;;;5064960;28;20199;-68
2021/04/26 11:44:59;;;;;;;7.55;4.35;;;17.60;99.90;;;;;;5065110;28;20191;-69
2021/04/26 11:47:25;;;;;;;6.75;4.18;;;17.50;99.90;;;;;;5062621;28;20649;-69
2021/04/26 11:49:53;;;;;;;4.00;3.67;;;17.80;99.90;;;;;;5065074;28;20168;-68
2021/04/26 11:52:21;;;;;;;4.28;3.88;;;18.00;99.90;;;;;;5064464;28;20216;-69
2021/04/26 11:54:49;;;;;;;12.02;4.88;;;17.90;99.90;;;;;;5064946;28;20168;-68
2021/04/26 11:57:22;;;;;;;13.38;5.28;;;18.00;99.90;;;;;;5061775;28;20195;-69
2021/04/26 11:59:51;;;;;;;10.57;4.07;;;18.00;99.90;;;;;;5046636;28;20188;-69
2021/04/26 12:02:27;;;;;;;10.30;4.57;;;18.40;99.90;;;;;;5064623;28;20164;-68
2021/04/26 12:04:54;;;;;;;6.35;4.10;;;18.10;98.90;;;;;;5046381;28;20662;-68
2021/04/26 12:07:19;;;;;;;5.05;3.78;;;17.30;98.60;;;;;;5043567;28;20172;-68
2021/04/26 12:09:57;;;;;;;11.50;4.22;;;17.60;99.90;;;;;;5067951;28;20172;-68
2021/04/26 12:12:27;;;;;;;6.03;3.88;;;18.00;99.90;;;;;;5050494;28;20188;-68
2021/04/26 12:14:54;;;;;;;5.68;4.10;;;18.40;99.90;;;;;;5068413;28;20157;-68
2021/04/26 12:17:25;;;;;;;5.85;4.07;;;18.80;99.00;;;;;;5065141;28;20173;-68
2021/04/26 12:19:51;;;;;;;8.15;4.07;;;19.00;98.30;;;;;;5068218;28;20153;-68
2021/04/26 12:22:20;;;;;;;7.07;4.07;;;19.20;99.20;;;;;;5049728;28;20283;-68
2021/04/26 12:24:46;;;;;;;12.23;4.90;;;19.30;98.90;;;;;;5068216;28;20160;-68
2021/04/26 12:27:14;;;;;;;5.70;4.15;;;19.30;99.20;;;;;;5065247;28;20203;-68
2021/04/26 12:29:41;;;;;;;11.38;4.53;;;19.30;99.70;;;;;;5068146;28;20168;-68
2021/04/26 12:32:13;;;;;;;7.05;3.70;;;19.30;97.80;;;;;;5067465;28;20225;-68
2021/04/26 12:35:00;;;;;;;10.25;4.20;;;19.30;98.30;;;;;;5068070;28;20161;-68
2021/04/26 12:37:35;;;;;;;5.80;3.90;;;19.70;97.60;;;;;;5065346;28;20224;-68
2021/04/26 12:40:35;;;;;;;9.48;4.20;;;19.90;97.70;;;;;;5049756;28;20178;-68
2021/04/26 12:43:07;;;;;;;12.55;4.25;;;20.00;98.00;;;;;;5067484;28;20168;-68
2021/04/26 12:45:40;;;;;;;7.07;3.45;;;20.10;95.40;;;;;;5064963;28;20172;-68
2021/04/26 12:48:10;;;;;;;10.75;3.92;;;18.70;96.00;;;;;;5067256;28;20169;-68
2021/04/26 12:50:38;;;;;;;3.72;2.88;;;19.10;96.90;;;;;;5067609;28;20183;-68
2021/04/26 12:53:09;;;;;;;8.80;3.72;;;19.60;96.90;;;;;;5067078;28;20192;-68
2021/04/26 12:55:37;;;;;;;7.90;4.57;;;19.70;94.40;;;;;;5065114;28;20242;-68
2021/04/26 12:58:12;;;;;;;7.63;3.90;;;19.80;96.40;;;;;;5067118;28;20211;-68